Time;durP1;ratioP1;P1;durP2;ratioP2;P2;SDS_P1;SDS_P2;PMS_P1;PMS_P2;Temp;Humidity;BMP_temperature;BMP_pressure;BME280_temperature;BME280_humidity;BME280_pressure;Samples;Min_cycle;Max_cycle;Signal;HPM_P1;HPM_P2
2023/04/09 00:00:46;;;;;;;32.33;14.13;;;;;;;1.46;100.00;99130.69;3240841;22;20340;-87
2023/04/09 00:02:21;;;;;;;33.95;14.23;;;;;;;1.32;100.00;99135.56;3240747;22;20020;-86
2023/04/09 00:03:38;;;;;;;32.25;14.32;;;;;;;1.51;100.00;99131.66;3242298;22;20436;-87
2023/04/09 00:04:53;;;;;;;32.90;14.15;;;;;;;1.44;100.00;99135.81;3241629;22;20031;-87
2023/04/09 00:06:10;;;;;;;32.17;14.60;;;;;;;1.69;100.00;99134.59;3240937;22;20551;-87
2023/04/09 00:07:26;;;;;;;35.13;15.68;;;;;;;1.54;100.00;99129.13;3242343;22;20456;-87
2023/04/09 00:08:41;;;;;;;33.30;15.07;;;;;;;1.77;100.00;99134.72;3241051;22;20020;-86
2023/04/09 00:09:57;;;;;;;33.33;14.60;;;;;;;1.78;100.00;99127.88;3241562;22;20061;-87
2023/04/09 00:11:12;;;;;;;35.97;16.33;;;;;;;1.88;100.00;99129.75;3240882;22;20024;-87
2023/04/09 00:12:29;;;;;;;37.10;16.60;;;;;;;1.91;100.00;99131.53;3241257;22;20034;-87
2023/04/09 00:13:44;;;;;;;34.90;15.35;;;;;;;1.94;100.00;99129.88;3241076;22;20106;-87
2023/04/09 00:15:00;;;;;;;34.05;15.77;;;;;;;1.92;100.00;99130.69;3241017;22;20070;-87
2023/04/09 00:16:15;;;;;;;34.92;15.77;;;;;;;1.86;100.00;99128.00;3224388;23;20020;-87
2023/04/09 00:17:31;;;;;;;34.45;14.85;;;;;;;1.93;100.00;99133.31;3231460;22;20015;-87
2023/04/09 00:18:46;;;;;;;34.78;14.32;;;;;;;1.84;100.00;99122.81;3240596;22;20019;-86
2023/04/09 00:20:03;;;;;;;30.55;14.20;;;;;;;1.67;100.00;99125.94;3242004;22;20062;-87
2023/04/09 00:21:19;;;;;;;32.65;15.25;;;;;;;1.55;100.00;99130.88;3224105;23;20383;-87
2023/04/09 00:22:35;;;;;;;28.77;13.80;;;;;;;1.49;100.00;99135.94;3230902;22;20023;-85
2023/04/09 00:23:50;;;;;;;34.42;15.77;;;;;;;1.71;100.00;99133.75;3224464;23;20460;-86
2023/04/09 00:25:06;;;;;;;30.77;14.93;;;;;;;1.68;100.00;99126.84;3231004;22;20027;-87
2023/04/09 00:26:22;;;;;;;32.85;14.45;;;;;;;1.59;100.00;99126.66;3241011;22;20464;-88
2023/04/09 00:27:38;;;;;;;31.58;14.05;;;;;;;1.44;100.00;99129.78;3240637;22;20015;-86
2023/04/09 00:28:54;;;;;;;32.55;14.65;;;;;;;1.52;100.00;99126.50;3241236;22;20047;-87
2023/04/09 00:30:10;;;;;;;33.97;15.35;;;;;;;1.47;100.00;99132.44;3241258;22;20354;-86
2023/04/09 00:31:25;;;;;;;31.88;14.75;;;;;;;1.17;100.00;99129.25;3240931;22;20026;-87
2023/04/09 00:32:41;;;;;;;38.90;15.60;;;;;;;1.50;100.00;99133.34;3241111;22;20028;-86
2023/04/09 00:33:57;;;;;;;35.95;14.95;;;;;;;1.67;100.00;99130.22;3241034;22;20463;-86
2023/04/09 00:35:12;;;;;;;39.10;16.17;;;;;;;1.75;100.00;99139.00;3240954;22;21097;-86
2023/04/09 00:36:28;;;;;;;39.40;16.15;;;;;;;1.73;100.00;99137.22;3224105;23;20449;-87
2023/04/09 00:37:44;;;;;;;33.38;14.45;;;;;;;1.84;100.00;99133.13;3230148;22;20024;-87
2023/04/09 00:38:59;;;;;;;34.38;15.82;;;;;;;1.88;100.00;99134.06;3240561;22;20452;-85
2023/04/09 00:40:15;;;;;;;33.55;15.35;;;;;;;1.93;100.00;99138.47;3241120;22;20024;-86
2023/04/09 00:41:30;;;;;;;37.40;15.82;;;;;;;2.02;100.00;99132.59;3224356;23;20565;-87
2023/04/09 00:42:46;;;;;;;34.80;15.75;;;;;;;2.09;100.00;99134.44;3214331;23;20352;-86
2023/04/09 00:44:02;;;;;;;33.63;16.30;;;;;;;2.11;100.00;99131.88;3231308;22;20356;-86
2023/04/09 00:45:17;;;;;;;32.35;15.63;;;;;;;2.21;100.00;99128.63;3241184;22;20028;-86
2023/04/09 00:46:33;;;;;;;34.97;16.67;;;;;;;2.33;100.00;99135.69;3240836;22;20498;-86
2023/04/09 00:47:49;;;;;;;37.05;16.52;;;;;;;2.29;100.00;99133.03;3240688;22;20020;-86
2023/04/09 00:49:05;;;;;;;34.50;15.05;;;;;;;2.26;100.00;99133.88;3241005;22;20663;-86
2023/04/09 00:50:20;;;;;;;40.67;15.98;;;;;;;2.25;100.00;99132.13;3241013;22;20024;-86
2023/04/09 00:51:37;;;;;;;36.80;16.55;;;;;;;2.40;100.00;99124.63;3208117;23;20027;-84
2023/04/09 00:52:53;;;;;;;36.67;15.48;;;;;;;2.51;100.00;99126.50;3221544;22;20685;-86
2023/04/09 00:54:09;;;;;;;33.88;16.05;;;;;;;2.49;100.00;99129.06;3241029;22;20096;-86
2023/04/09 00:55:24;;;;;;;37.65;17.50;;;;;;;2.64;100.00;99131.00;3240775;22;20034;-85
2023/04/09 00:56:41;;;;;;;40.38;17.15;;;;;;;2.73;100.00;99127.72;3241077;22;20026;-87
2023/04/09 00:57:56;;;;;;;38.30;17.02;;;;;;;2.65;100.00;99126.72;3241118;22;20074;-86
2023/04/09 00:59:12;;;;;;;43.50;18.73;;;;;;;2.59;100.00;99126.66;3240698;22;20023;-86
2023/04/09 01:00:28;;;;;;;37.80;17.15;;;;;;;2.64;100.00;99123.25;3240579;22;20024;-86
2023/04/09 01:01:43;;;;;;;37.42;16.40;;;;;;;2.58;100.00;99123.19;3241192;22;20043;-86
2023/04/09 01:02:59;;;;;;;41.45;17.90;;;;;;;2.52;100.00;99126.53;3241430;22;20055;-86
2023/04/09 01:04:15;;;;;;;40.75;17.58;;;;;;;2.60;100.00;99129.22;3240697;22;20102;-86
2023/04/09 01:05:42;;;;;;;39.67;17.25;;;;;;;2.61;100.00;99132.69;3241141;22;20386;-86
2023/04/09 01:07:09;;;;;;;36.35;16.75;;;;;;;2.26;100.00;99131.28;3240600;22;20207;-85
2023/04/09 01:08:52;;;;;;;40.67;17.08;;;;;;;2.31;100.00;99137.41;3241862;22;20064;-86
2023/04/09 01:10:30;;;;;;;;;;;;;;;2.38;100.00;99128.91;3224839;23;20021;-86
2023/04/09 01:12:01;;;;;;;34.40;14.00;;;;;;;2.20;100.00;99136.34;3223237;22;19943;-86
2023/04/09 01:13:34;;;;;;;39.58;16.98;;;;;;;1.99;100.00;99129.97;3240934;22;20263;-86
2023/04/09 01:14:58;;;;;;;39.85;16.95;;;;;;;2.38;100.00;99128.91;3240731;22;20070;-86
2023/04/09 01:16:17;;;;;;;37.88;16.55;;;;;;;2.40;100.00;99121.16;3240265;22;20024;-85
2023/04/09 01:17:39;;;;;;;44.45;18.42;;;;;;;2.53;100.00;99112.75;3240880;22;20069;-85
2023/04/09 01:19:40;;;;;;;43.78;17.75;;;;;;;2.52;100.00;99107.59;3240457;22;20039;-86
2023/04/09 01:21:03;;;;;;;38.85;16.70;;;;;;;2.65;100.00;99114.69;3209762;22;20031;-85
2023/04/09 01:22:47;;;;;;;38.17;15.52;;;;;;;2.63;100.00;99111.19;3241348;22;20020;-85
2023/04/09 01:24:15;;;;;;;38.42;16.38;;;;;;;2.69;100.00;99120.75;3241796;22;20023;-85
2023/04/09 01:25:51;;;;;;;39.55;16.50;;;;;;;2.77;100.00;99123.44;3240819;22;20101;-86
2023/04/09 01:27:08;;;;;;;39.15;16.55;;;;;;;2.72;100.00;99125.09;3241179;22;20348;-86
2023/04/09 01:28:31;;;;;;;41.03;17.98;;;;;;;2.81;100.00;99120.06;3242004;22;20043;-85
2023/04/09 01:29:51;;;;;;;36.20;16.60;;;;;;;2.88;100.00;99116.72;3241781;22;20043;-84
2023/04/09 01:31:12;;;;;;;39.67;16.10;;;;;;;2.93;100.00;99125.41;3241704;22;20039;-86
2023/04/09 01:32:31;;;;;;;38.88;16.27;;;;;;;2.86;100.00;99125.28;3241569;22;20514;-86
2023/04/09 01:33:46;;;;;;;37.65;16.75;;;;;;;2.71;100.00;99128.53;3242116;22;20418;-86
2023/04/09 01:35:05;;;;;;;35.10;16.23;;;;;;;2.64;100.00;99123.25;3241782;22;20214;-86
2023/04/09 01:36:23;;;;;;;37.75;17.15;;;;;;;2.80;100.00;99126.09;3242689;22;20015;-86
2023/04/09 01:37:39;;;;;;;40.03;16.38;;;;;;;2.70;100.00;99129.38;3241406;22;20043;-86
2023/04/09 01:38:55;;;;;;;39.70;17.25;;;;;;;2.76;100.00;99130.34;3241767;22;20019;-85
2023/04/09 01:40:11;;;;;;;34.70;16.13;;;;;;;2.72;100.00;99130.28;3241892;22;20024;-86
2023/04/09 01:41:30;;;;;;;35.85;17.08;;;;;;;2.95;100.00;99125.41;3241844;22;20023;-85
2023/04/09 01:42:46;;;;;;;39.67;17.33;;;;;;;2.95;100.00;99123.72;3241583;22;20031;-86
2023/04/09 01:44:06;;;;;;;36.45;16.48;;;;;;;2.96;100.00;99120.28;3241893;22;20035;-85
2023/04/09 01:45:22;;;;;;;34.95;16.63;;;;;;;3.00;100.00;99117.72;3241467;22;20460;-86
2023/04/09 01:46:38;;;;;;;37.83;17.60;;;;;;;3.00;100.00;99120.31;3242103;22;20061;-85
2023/04/09 01:47:55;;;;;;;37.85;17.10;;;;;;;2.86;100.00;99128.75;3241514;22;20032;-85
2023/04/09 01:49:11;;;;;;;41.72;17.92;;;;;;;2.77;100.00;99124.31;3242802;22;20641;-86
2023/04/09 01:50:27;;;;;;;39.80;17.90;;;;;;;2.71;100.00;99125.94;3242669;22;20081;-86
2023/04/09 01:51:43;;;;;;;36.13;16.75;;;;;;;2.66;100.00;99134.50;3241480;22;20410;-85
2023/04/09 01:53:00;;;;;;;37.33;17.20;;;;;;;2.53;100.00;99124.84;3242131;22;20100;-86
2023/04/09 01:54:15;;;;;;;39.55;17.45;;;;;;;2.43;100.00;99122.94;3241938;22;20024;-86
2023/04/09 01:55:31;;;;;;;40.75;17.13;;;;;;;2.32;100.00;99131.38;3242355;22;20049;-85
2023/04/09 01:56:47;;;;;;;43.03;18.73;;;;;;;2.33;100.00;99130.53;3241278;22;20486;-86
2023/04/09 01:58:03;;;;;;;41.05;16.67;;;;;;;2.09;100.00;99131.84;3242148;22;20093;-86
2023/04/09 01:59:18;;;;;;;42.60;18.55;;;;;;;2.13;100.00;99139.69;3241858;22;20020;-86
2023/04/09 02:00:38;;;;;;;42.15;18.13;;;;;;;2.29;100.00;99126.16;3242075;22;20020;-86
2023/04/09 02:02:10;;;;;;;45.97;18.48;;;;;;;2.25;100.00;99133.00;3241479;22;20015;-86
2023/04/09 02:03:50;;;;;;;48.47;20.90;;;;;;;2.52;100.00;99120.50;3241638;22;20034;-86
2023/04/09 02:05:10;;;;;;;44.20;19.48;;;;;;;2.67;100.00;99128.50;3241420;22;20103;-86
2023/04/09 02:06:43;;;;;;;47.53;19.13;;;;;;;2.92;100.00;99122.81;3241721;22;20020;-86
2023/04/09 02:08:02;;;;;;;42.85;18.35;;;;;;;3.05;100.00;99129.00;3241760;22;20512;-86
2023/04/09 02:09:20;;;;;;;45.40;19.48;;;;;;;3.07;100.00;99138.53;3241574;22;20460;-84
2023/04/09 02:10:38;;;;;;;46.60;19.55;;;;;;;2.99;100.00;99134.97;3241742;22;20451;-86
2023/04/09 02:11:57;;;;;;;45.40;19.23;;;;;;;3.10;100.00;99138.56;3241395;22;20044;-86
2023/04/09 02:13:17;;;;;;;48.08;19.15;;;;;;;3.02;100.00;99128.97;3241618;22;20720;-86
2023/04/09 02:14:34;;;;;;;42.63;18.30;;;;;;;2.82;100.00;99139.91;3242420;22;20501;-86
2023/04/09 02:15:51;;;;;;;47.00;19.38;;;;;;;3.11;100.00;99136.88;3241666;22;20070;-85
2023/04/09 02:17:06;;;;;;;45.03;18.83;;;;;;;3.18;100.00;99141.25;3242452;22;20335;-86
2023/04/09 02:18:27;;;;;;;46.88;19.50;;;;;;;3.21;100.00;99148.19;3241293;22;20034;-84
2023/04/09 02:19:44;;;;;;;45.35;19.52;;;;;;;3.30;100.00;99142.25;3241614;22;20073;-85
2023/04/09 02:21:00;;;;;;;45.97;18.98;;;;;;;3.27;100.00;99144.81;3241488;22;20444;-87
2023/04/09 02:22:16;;;;;;;46.58;19.35;;;;;;;3.34;100.00;99137.16;3242039;22;20023;-86
2023/04/09 02:23:32;;;;;;;48.92;20.75;;;;;;;3.36;100.00;99130.28;3225400;23;20040;-86
2023/04/09 02:24:47;;;;;;;51.65;20.48;;;;;;;3.33;100.00;99129.34;3232365;22;20043;-86
2023/04/09 02:26:03;;;;;;;47.40;18.75;;;;;;;3.34;100.00;99131.97;3241480;22;20030;-87
2023/04/09 02:27:19;;;;;;;40.72;18.05;;;;;;;3.06;100.00;99130.75;3241965;22;20042;-86
2023/04/09 02:28:34;;;;;;;41.97;17.95;;;;;;;3.04;100.00;99132.44;3241923;22;20573;-86
2023/04/09 02:29:50;;;;;;;45.40;18.95;;;;;;;3.18;100.00;99137.81;3223945;23;20876;-85
2023/04/09 02:31:05;;;;;;;44.67;19.65;;;;;;;3.31;100.00;99139.72;3231409;22;20030;-86
2023/04/09 02:32:21;;;;;;;41.72;19.10;;;;;;;3.34;100.00;99138.84;3241733;22;20024;-85
2023/04/09 02:33:36;;;;;;;42.83;19.50;;;;;;;3.37;100.00;99142.38;3241422;22;20042;-86
2023/04/09 02:34:52;;;;;;;43.53;19.83;;;;;;;3.41;100.00;99135.50;3241835;22;20019;-87
2023/04/09 02:36:12;;;;;;;47.40;20.75;;;;;;;3.37;100.00;99131.16;3240741;22;20395;-86
2023/04/09 02:37:27;;;;;;;43.67;19.27;;;;;;;3.20;100.00;99133.53;3241339;22;20217;-87
2023/04/09 02:38:43;;;;;;;40.05;18.42;;;;;;;3.24;100.00;99133.59;3242042;22;20020;-86
2023/04/09 02:39:59;;;;;;;40.75;17.65;;;;;;;3.41;100.00;99138.09;3241115;22;20024;-87
2023/04/09 02:41:14;;;;;;;40.28;18.65;;;;;;;3.43;100.00;99136.41;3240790;22;20027;-86
2023/04/09 02:42:30;;;;;;;39.50;16.88;;;;;;;3.40;100.00;99136.38;3240992;22;20024;-87
2023/04/09 02:43:45;;;;;;;39.67;17.70;;;;;;;3.45;100.00;99139.88;3241243;22;20019;-88
2023/04/09 02:45:01;;;;;;;41.47;19.42;;;;;;;3.45;100.00;99134.69;3241514;22;20023;-86
2023/04/09 02:46:16;;;;;;;39.40;17.63;;;;;;;3.36;100.00;99139.78;3241140;22;20016;-87
2023/04/09 02:47:32;;;;;;;37.70;17.15;;;;;;;3.33;100.00;99139.72;3241102;22;20016;-88
2023/04/09 02:48:47;;;;;;;41.17;17.85;;;;;;;3.02;100.00;99144.50;3241614;22;20103;-86
2023/04/09 02:50:04;;;;;;;38.40;16.73;;;;;;;3.09;100.00;99134.25;3241521;22;20023;-86
2023/04/09 02:51:20;;;;;;;40.22;18.58;;;;;;;3.19;100.00;99132.63;3241475;22;20414;-86
2023/04/09 02:52:36;;;;;;;39.17;18.13;;;;;;;3.25;100.00;99132.75;3241078;22;20464;-86
2023/04/09 02:53:52;;;;;;;41.03;19.08;;;;;;;3.33;100.00;99132.81;3241772;22;20016;-85
2023/04/09 02:55:07;;;;;;;37.90;17.58;;;;;;;3.33;100.00;99135.41;3241252;22;20015;-85
2023/04/09 02:56:23;;;;;;;40.85;18.10;;;;;;;3.33;100.00;99134.53;3241634;22;20050;-86
2023/04/09 02:57:39;;;;;;;40.40;18.20;;;;;;;3.37;100.00;99131.16;3241670;22;20012;-86
2023/04/09 02:58:55;;;;;;;39.92;17.73;;;;;;;3.27;100.00;99127.56;3241094;22;20024;-86
2023/04/09 03:00:12;;;;;;;37.08;16.92;;;;;;;3.37;100.00;99126.84;3241369;22;20483;-86
2023/04/09 03:01:27;;;;;;;39.35;16.95;;;;;;;3.44;100.00;99126.91;3241257;22;20016;-86
2023/04/09 03:02:42;;;;;;;41.25;17.48;;;;;;;3.37;100.00;99125.97;3241057;22;20026;-87
2023/04/09 03:03:59;;;;;;;34.55;15.18;;;;;;;3.19;100.00;99121.44;3241446;22;20024;-87
2023/04/09 03:05:15;;;;;;;39.70;17.50;;;;;;;3.30;100.00;99118.97;3241244;22;20382;-86
2023/04/09 03:06:30;;;;;;;39.75;17.40;;;;;;;3.45;100.00;99123.47;3224140;23;20016;-86
2023/04/09 03:07:46;;;;;;;31.27;15.65;;;;;;;3.41;100.00;99127.75;3230113;22;20522;-86
2023/04/09 03:09:01;;;;;;;38.00;17.08;;;;;;;3.41;100.00;99126.88;3241379;22;20019;-86
2023/04/09 03:10:17;;;;;;;37.47;16.40;;;;;;;3.38;100.00;99125.97;3241310;22;20015;-86
2023/04/09 03:11:32;;;;;;;35.05;16.52;;;;;;;3.32;100.00;99125.91;3241444;22;20098;-87
2023/04/09 03:12:48;;;;;;;37.15;16.55;;;;;;;3.37;100.00;99124.25;3242016;22;20078;-87
2023/04/09 03:14:04;;;;;;;39.90;16.70;;;;;;;3.43;100.00;99128.63;3241817;22;20027;-86
2023/04/09 03:15:19;;;;;;;32.20;15.95;;;;;;;3.29;100.00;99122.41;3224569;23;20024;-86
2023/04/09 03:16:35;;;;;;;36.50;16.42;;;;;;;3.21;100.00;99118.03;3231737;22;20030;-86
2023/04/09 03:17:50;;;;;;;38.42;16.95;;;;;;;3.38;100.00;99118.22;3241844;22;20077;-87
2023/04/09 03:19:06;;;;;;;36.03;16.27;;;;;;;3.05;100.00;99118.66;3240575;22;20030;-86
2023/04/09 03:20:22;;;;;;;34.85;15.80;;;;;;;3.20;100.00;99113.66;3240739;22;20028;-86
2023/04/09 03:21:37;;;;;;;34.88;15.90;;;;;;;3.15;100.00;99112.75;3240804;22;20042;-86
2023/04/09 03:22:53;;;;;;;40.30;17.80;;;;;;;3.36;100.00;99114.75;3240993;22;20061;-85
2023/04/09 03:24:08;;;;;;;35.13;16.35;;;;;;;3.54;100.00;99115.81;3240975;22;20019;-86
2023/04/09 03:25:24;;;;;;;39.03;18.50;;;;;;;3.59;100.00;99110.69;3241228;22;20023;-86
2023/04/09 03:26:40;;;;;;;37.17;16.35;;;;;;;3.43;100.00;99113.09;3240609;22;20019;-86
2023/04/09 03:27:55;;;;;;;33.97;17.00;;;;;;;3.48;100.00;99116.59;3241170;22;20398;-86
2023/04/09 03:29:11;;;;;;;41.80;18.85;;;;;;;3.34;100.00;99107.81;3241927;22;20073;-86
2023/04/09 03:30:26;;;;;;;39.35;18.25;;;;;;;3.52;100.00;99110.63;3241332;22;20054;-86
2023/04/09 03:31:42;;;;;;;37.53;17.55;;;;;;;3.38;100.00;99107.88;3240814;22;20024;-87
2023/04/09 03:32:58;;;;;;;36.97;17.67;;;;;;;3.52;100.00;99107.16;3242261;22;20026;-86
2023/04/09 03:34:14;;;;;;;39.10;17.35;;;;;;;3.39;100.00;99112.19;3241218;22;20039;-87
2023/04/09 03:35:29;;;;;;;40.78;18.10;;;;;;;3.27;100.00;99106.84;3241317;22;20086;-86
2023/04/09 03:36:45;;;;;;;40.30;17.17;;;;;;;3.50;100.00;99103.69;3240881;22;20467;-86
2023/04/09 03:38:01;;;;;;;36.70;16.27;;;;;;;3.44;100.00;99106.22;3240398;22;20019;-86
2023/04/09 03:39:16;;;;;;;40.20;17.30;;;;;;;3.49;100.00;99105.41;3241151;22;20042;-86
2023/04/09 03:40:32;;;;;;;40.08;18.20;;;;;;;3.34;100.00;99100.91;3241030;22;20616;-85
2023/04/09 03:41:48;;;;;;;43.03;17.70;;;;;;;3.35;100.00;99106.94;3240972;22;20570;-86
2023/04/09 03:43:03;;;;;;;39.10;18.13;;;;;;;3.42;100.00;99111.38;3241046;22;20023;-85
2023/04/09 03:44:19;;;;;;;36.22;16.95;;;;;;;3.43;100.00;99105.34;3240876;22;20042;-86
2023/04/09 03:45:34;;;;;;;41.15;16.85;;;;;;;3.58;100.00;99108.94;3240829;22;20019;-86
2023/04/09 03:46:50;;;;;;;38.70;17.60;;;;;;;3.62;100.00;99111.59;3241225;22;20038;-86
2023/04/09 03:48:05;;;;;;;36.20;17.08;;;;;;;3.59;100.00;99105.50;3240905;22;20073;-85
2023/04/09 03:49:21;;;;;;;35.95;17.13;;;;;;;3.56;100.00;99110.66;3241112;22;20419;-86
2023/04/09 03:50:40;;;;;;;39.70;17.88;;;;;;;3.64;100.00;99111.63;3240828;22;20019;-86
2023/04/09 03:51:55;;;;;;;37.28;17.58;;;;;;;3.66;100.00;99108.16;3241136;22;20038;-86
2023/04/09 03:53:11;;;;;;;40.83;18.65;;;;;;;3.69;100.00;99112.53;3240959;22;20027;-87
2023/04/09 03:54:30;;;;;;;35.00;16.90;;;;;;;3.58;100.00;99106.34;3241036;22;20042;-87
2023/04/09 03:55:45;;;;;;;41.50;17.83;;;;;;;3.61;100.00;99114.16;3240108;22;20047;-87
2023/04/09 03:57:03;;;;;;;43.72;18.10;;;;;;;3.60;100.00;99117.59;3240268;22;20023;-87
2023/04/09 03:58:18;;;;;;;37.20;16.60;;;;;;;3.55;100.00;99111.50;3240781;22;20095;-87
2023/04/09 03:59:34;;;;;;;39.42;17.40;;;;;;;3.47;100.00;99107.09;3224336;23;20138;-87
2023/04/09 04:00:49;;;;;;;34.50;17.25;;;;;;;3.58;100.00;99114.13;3229669;22;20462;-87
2023/04/09 04:02:05;;;;;;;34.65;16.67;;;;;;;3.68;100.00;99110.78;3240899;22;20024;-87
2023/04/09 04:03:20;;;;;;;38.05;17.25;;;;;;;3.56;100.00;99111.50;3240345;22;20032;-88
2023/04/09 04:04:36;;;;;;;39.13;17.25;;;;;;;3.40;100.00;99110.47;3241077;22;20028;-87
2023/04/09 04:05:52;;;;;;;39.33;17.65;;;;;;;3.42;100.00;99111.38;3240675;22;20359;-87
2023/04/09 04:07:07;;;;;;;36.35;17.73;;;;;;;3.54;100.00;99108.03;3240654;22;20102;-87
2023/04/09 04:08:23;;;;;;;43.15;18.45;;;;;;;3.58;100.00;99114.13;3240623;22;20379;-87
2023/04/09 04:09:38;;;;;;;39.30;17.80;;;;;;;3.65;100.00;99113.34;3240938;22;20012;-86
2023/04/09 04:10:54;;;;;;;38.72;17.08;;;;;;;3.72;100.00;99117.72;3241755;22;20024;-89
2023/04/09 04:12:10;;;;;;;37.97;17.70;;;;;;;3.67;100.00;99117.69;3240586;22;20023;-86
2023/04/09 04:13:25;;;;;;;42.33;17.88;;;;;;;3.63;100.00;99112.44;3240987;22;20398;-87
2023/04/09 04:14:41;;;;;;;39.53;17.75;;;;;;;3.80;100.00;99117.81;3240794;22;20486;-87
2023/04/09 04:15:56;;;;;;;39.08;17.73;;;;;;;3.70;100.00;99119.44;3240918;22;20023;-88
2023/04/09 04:17:12;;;;;;;37.13;16.73;;;;;;;3.57;100.00;99118.44;3240380;22;20023;-86
2023/04/09 04:18:28;;;;;;;39.58;17.30;;;;;;;3.67;100.00;99119.41;3241420;22;20070;-87
2023/04/09 04:19:43;;;;;;;42.15;18.77;;;;;;;3.63;100.00;99126.28;3240710;22;20024;-88
2023/04/09 04:20:59;;;;;;;40.08;16.80;;;;;;;3.66;100.00;99118.53;3240899;22;20020;-88
2023/04/09 04:22:14;;;;;;;34.97;17.20;;;;;;;3.79;100.00;99121.25;3240568;22;20020;-88
2023/04/09 04:23:30;;;;;;;40.22;16.13;;;;;;;3.72;100.00;99122.91;3241086;22;20024;-87
2023/04/09 04:24:45;;;;;;;37.05;16.90;;;;;;;3.77;100.00;99122.97;3240526;22;20030;-87
2023/04/09 04:26:08;;;;;;;36.50;18.13;;;;;;;3.80;100.00;99123.88;3240422;22;20023;-88
2023/04/09 04:27:24;;;;;;;35.30;15.30;;;;;;;3.61;100.00;99124.50;3240288;22;20908;-87
2023/04/09 04:28:40;;;;;;;40.88;17.30;;;;;;;3.71;100.00;99125.50;3241048;22;20016;-88
2023/04/09 04:30:01;;;;;;;38.60;17.73;;;;;;;3.87;100.00;99127.41;3241076;22;20016;-87
2023/04/09 04:31:16;;;;;;;41.28;17.42;;;;;;;3.88;100.00;99133.44;3240860;22;20062;-87
2023/04/09 04:32:32;;;;;;;37.83;16.15;;;;;;;3.79;100.00;99123.84;3240138;22;20023;-88
2023/04/09 04:33:47;;;;;;;34.38;15.98;;;;;;;3.79;100.00;99124.72;3240721;22;20031;-88
2023/04/09 04:35:03;;;;;;;33.85;15.73;;;;;;;3.89;100.00;99125.69;3240444;22;20019;-87
2023/04/09 04:36:18;;;;;;;31.17;15.52;;;;;;;3.79;100.00;99124.72;3241818;22;20110;-87
2023/04/09 04:37:34;;;;;;;40.15;16.08;;;;;;;3.93;100.00;99126.59;3240583;22;20381;-87
2023/04/09 04:38:49;;;;;;;39.13;17.35;;;;;;;3.85;100.00;99128.22;3240749;22;20034;-86
2023/04/09 04:40:06;;;;;;;40.58;17.38;;;;;;;3.74;100.00;99130.72;3224328;23;20020;-87
2023/04/09 04:41:22;;;;;;;37.00;18.10;;;;;;;3.75;100.00;99128.13;3230088;22;20039;-87
2023/04/09 04:42:37;;;;;;;37.47;17.23;;;;;;;3.78;100.00;99127.28;3240311;22;20023;-87
2023/04/09 04:43:53;;;;;;;38.97;18.13;;;;;;;3.84;100.00;99136.84;3240223;22;20455;-87
2023/04/09 04:45:09;;;;;;;40.17;17.73;;;;;;;3.93;100.00;99131.78;3240491;22;20141;-86
2023/04/09 04:46:24;;;;;;;39.80;16.85;;;;;;;3.76;100.00;99129.84;3239556;22;20039;-86
2023/04/09 04:47:40;;;;;;;37.40;16.90;;;;;;;3.71;100.00;99122.91;3240577;22;20020;-86
2023/04/09 04:50:35;;;;;;;36.22;15.90;;;;;;;3.52;100.00;99125.28;3210452;23;20255;-87
2023/04/09 04:51:50;;;;;;;33.38;14.73;;;;;;;3.61;100.00;99125.38;3230622;22;20023;-86
2023/04/09 04:53:08;;;;;;;40.28;17.33;;;;;;;3.51;100.00;99121.84;3240194;22;20024;-86
2023/04/09 04:54:26;;;;;;;38.00;17.20;;;;;;;3.55;100.00;99124.44;3240516;22;20408;-88
2023/04/09 04:55:45;;;;;;;36.67;17.05;;;;;;;3.65;100.00;99127.16;3240606;22;20027;-86
2023/04/09 04:57:01;;;;;;;35.17;17.92;;;;;;;3.75;100.00;99132.44;3240277;22;20510;-86
2023/04/09 04:58:17;;;;;;;38.05;18.15;;;;;;;3.88;100.00;99128.25;3241453;22;20023;-86
2023/04/09 04:59:35;;;;;;;38.95;18.17;;;;;;;3.90;100.00;99134.31;3240251;22;20081;-87
2023/04/09 05:00:51;;;;;;;38.78;17.52;;;;;;;3.76;100.00;99141.94;3240500;22;20044;-87
2023/04/09 05:02:06;;;;;;;41.58;18.30;;;;;;;3.39;100.00;99147.56;3240170;22;20478;-87
2023/04/09 05:03:22;;;;;;;42.17;18.95;;;;;;;3.69;100.00;99146.19;3240510;22;20026;-87
2023/04/09 05:04:38;;;;;;;44.92;21.00;;;;;;;3.65;100.00;99140.09;3240380;22;20030;-87
2023/04/09 05:05:53;;;;;;;42.50;19.88;;;;;;;3.79;100.00;99142.84;3239339;22;20023;-87
2023/04/09 05:07:09;;;;;;;41.05;18.63;;;;;;;3.90;100.00;99152.44;3240259;22;20020;-87
2023/04/09 05:08:25;;;;;;;43.60;18.60;;;;;;;3.91;100.00;99144.69;3240618;22;20031;-85
2023/04/09 05:09:41;;;;;;;40.45;18.40;;;;;;;4.15;100.00;99147.50;3240699;22;20019;-86
2023/04/09 05:10:57;;;;;;;45.97;18.52;;;;;;;4.13;100.00;99142.34;3241519;22;20023;-87
2023/04/09 05:12:14;;;;;;;39.40;17.60;;;;;;;4.18;100.00;99142.34;3240095;22;20020;-85
2023/04/09 05:13:29;;;;;;;39.70;18.55;;;;;;;4.13;100.00;99146.63;3240963;22;20046;-89
2023/04/09 05:14:45;;;;;;;42.60;18.35;;;;;;;4.23;100.00;99145.88;3239895;22;20028;-90
2023/04/09 05:16:01;;;;;;;40.60;18.42;;;;;;;4.23;100.00;99148.47;3240749;22;20073;-89
2023/04/09 05:17:16;;;;;;;41.53;18.38;;;;;;;4.17;100.00;99148.38;3240326;22;20024;-84
2023/04/09 05:18:32;;;;;;;39.50;18.27;;;;;;;4.18;100.00;99155.31;3240655;22;20028;-82
2023/04/09 05:19:51;;;;;;;44.90;18.88;;;;;;;3.97;100.00;99149.06;3240810;22;20047;-82
2023/04/09 05:21:07;;;;;;;41.47;17.63;;;;;;;4.05;100.00;99147.44;3240656;22;20671;-83
2023/04/09 05:22:23;;;;;;;38.60;18.75;;;;;;;4.16;100.00;99151.84;3240266;22;20039;-82
2023/04/09 05:23:38;;;;;;;43.10;19.08;;;;;;;4.06;100.00;99150.88;3240312;22;20103;-82
2023/04/09 05:24:54;;;;;;;44.15;18.58;;;;;;;4.07;100.00;99156.09;3240551;22;20019;-81
2023/04/09 05:26:09;;;;;;;41.90;18.42;;;;;;;4.10;100.00;99152.66;3240412;22;20023;-86
2023/04/09 05:27:26;;;;;;;39.33;17.88;;;;;;;4.21;100.00;99148.44;3241145;22;20024;-81
2023/04/09 05:28:41;;;;;;;41.63;19.02;;;;;;;4.01;100.00;99145.66;3240765;22;20341;-80
2023/04/09 05:29:57;;;;;;;41.58;18.13;;;;;;;4.04;100.00;99153.44;3240877;22;20069;-85
2023/04/09 05:31:14;;;;;;;41.78;20.05;;;;;;;4.01;100.00;99150.84;3240551;22;20020;-84
2023/04/09 05:32:30;;;;;;;39.95;18.02;;;;;;;3.88;100.00;99152.44;3240435;22;20024;-84
2023/04/09 05:33:45;;;;;;;38.95;17.75;;;;;;;3.92;100.00;99151.63;3240374;22;20031;-84
2023/04/09 05:35:01;;;;;;;39.83;18.15;;;;;;;3.84;100.00;99145.47;3224393;23;20024;-84
2023/04/09 05:36:17;;;;;;;39.28;17.42;;;;;;;3.80;100.00;99148.88;3230295;22;20020;-84
2023/04/09 05:37:33;;;;;;;37.92;16.88;;;;;;;4.04;100.00;99145.69;3240899;22;20020;-84
2023/04/09 05:38:48;;;;;;;42.35;18.20;;;;;;;4.01;100.00;99152.56;3240407;22;20020;-84
2023/04/09 05:40:04;;;;;;;39.60;17.33;;;;;;;3.98;100.00;99148.22;3240539;22;20077;-83
2023/04/09 05:41:20;;;;;;;40.55;18.27;;;;;;;3.88;100.00;99146.38;3240386;22;20022;-85
2023/04/09 05:42:35;;;;;;;45.55;19.60;;;;;;;3.99;100.00;99138.75;3240572;22;20027;-86
2023/04/09 05:43:51;;;;;;;44.40;17.92;;;;;;;4.05;100.00;99150.03;3240354;22;20031;-85
2023/04/09 05:45:08;;;;;;;38.58;16.80;;;;;;;4.22;100.00;99141.53;3240420;22;20065;-86
2023/04/09 05:46:23;;;;;;;43.65;18.33;;;;;;;4.19;100.00;99144.97;3241195;22;20539;-86
2023/04/09 05:47:39;;;;;;;41.72;19.58;;;;;;;4.18;100.00;99152.72;3240646;22;20042;-86
2023/04/09 05:48:54;;;;;;;37.13;15.63;;;;;;;4.17;100.00;99148.38;3240547;22;20027;-86
2023/04/09 05:50:10;;;;;;;44.58;20.30;;;;;;;3.99;100.00;99141.34;3240616;22;20039;-86
2023/04/09 05:51:26;;;;;;;41.00;18.08;;;;;;;4.21;100.00;99147.59;3240982;22;20015;-86
2023/04/09 05:52:41;;;;;;;46.80;18.80;;;;;;;4.14;100.00;99138.88;3239999;22;20023;-84
2023/04/09 05:53:58;;;;;;;38.97;17.63;;;;;;;4.14;100.00;99148.38;3240874;22;20024;-86
2023/04/09 05:55:14;;;;;;;42.35;18.92;;;;;;;4.22;100.00;99152.75;3240484;22;20020;-84
2023/04/09 05:56:29;;;;;;;45.92;20.05;;;;;;;4.37;100.00;99149.47;3240829;22;20379;-83